Time;durP1;ratioP1;P1;durP2;ratioP2;P2;SDS_P1;SDS_P2;PMS_P1;PMS_P2;Temp;Humidity;BMP_temperature;BMP_pressure;BME280_temperature;BME280_humidity;BME280_pressure;Samples;Min_cycle;Max_cycle;Signal;HPM_P1;HPM_P2
2022/11/30 00:01:17;;;;;;;0.38;0.32;;;;;;;;;;4148115;28;20058;-47
2022/11/30 00:03:18;;;;;;;0.90;0.40;;;;;;;;;;4147898;28;20108;-46
2022/11/30 00:05:20;;;;;;;0.20;0.20;;;;;;;;;;4148239;28;20053;-47
2022/11/30 00:07:22;;;;;;;0.40;0.32;;;;;;;;;;4136998;28;20054;-46
2022/11/30 00:09:23;;;;;;;0.60;0.30;;;;;;;;;;4145864;28;20057;-45
2022/11/30 00:11:27;;;;;;;0.50;0.40;;;;;;;;;;4130184;28;20093;-46
2022/11/30 00:13:28;;;;;;;1.05;0.30;;;;;;;;;;4130417;28;20058;-49
2022/11/30 00:15:30;;;;;;;0.82;0.45;;;;;;;;;;4148049;28;20049;-47
2022/11/30 00:17:31;;;;;;;0.50;0.20;;;;;;;;;;4147780;28;20108;-53
2022/11/30 00:19:33;;;;;;;0.77;0.43;;;;;;;;;;4147920;28;20088;-46
2022/11/30 00:21:34;;;;;;;0.80;0.65;;;;;;;;;;4147065;28;20061;-49
2022/11/30 00:23:38;;;;;;;0.40;0.38;;;;;;;;;;4148076;28;20057;-48
2022/11/30 00:25:39;;;;;;;0.63;0.45;;;;;;;;;;4130282;28;20065;-48
2022/11/30 00:27:40;;;;;;;1.52;0.30;;;;;;;;;;4163061;28;20057;-46
2022/11/30 00:29:42;;;;;;;0.50;0.40;;;;;;;;;;4139424;28;20053;-46
2022/11/30 00:31:43;;;;;;;0.47;0.30;;;;;;;;;;4147568;28;20085;-50
2022/11/30 00:33:45;;;;;;;0.75;0.47;;;;;;;;;;4148008;28;20054;-46
2022/11/30 00:35:57;;;;;;;0.43;0.40;;;;;;;;;;4147167;28;20131;-47
2022/11/30 00:38:01;;;;;;;0.30;0.30;;;;;;;;;;4122093;28;20050;-48
2022/11/30 00:40:04;;;;;;;0.40;0.40;;;;;;;;;;4146596;28;20061;-47
2022/11/30 00:42:06;;;;;;;0.47;0.20;;;;;;;;;;4146251;28;20104;-49
2022/11/30 00:44:07;;;;;;;0.52;0.40;;;;;;;;;;4143175;28;20058;-48
2022/11/30 00:46:09;;;;;;;0.32;0.30;;;;;;;;;;4116555;28;20410;-49
2022/11/30 00:48:10;;;;;;;0.22;0.22;;;;;;;;;;4147533;28;20529;-48
2022/11/30 00:50:12;;;;;;;0.98;0.75;;;;;;;;;;4147489;28;20149;-52
2022/11/30 00:52:14;;;;;;;0.50;0.30;;;;;;;;;;4147041;28;20088;-48
2022/11/30 00:54:15;;;;;;;0.43;0.38;;;;;;;;;;4162165;28;20049;-48
2022/11/30 00:56:16;;;;;;;0.20;0.20;;;;;;;;;;4129693;28;20049;-45
2022/11/30 00:58:18;;;;;;;0.65;0.40;;;;;;;;;;4129981;28;20058;-48
2022/11/30 01:00:20;;;;;;;0.30;0.30;;;;;;;;;;4145864;28;20112;-48
2022/11/30 01:02:21;;;;;;;0.50;0.40;;;;;;;;;;4137730;28;20080;-49
2022/11/30 01:04:22;;;;;;;0.50;0.30;;;;;;;;;;4147092;28;20062;-48
2022/11/30 01:06:24;;;;;;;0.20;0.20;;;;;;;;;;4135675;28;20054;-49
2022/11/30 01:08:25;;;;;;;0.60;0.50;;;;;;;;;;4144717;28;20053;-48
2022/11/30 01:10:26;;;;;;;0.35;0.28;;;;;;;;;;4146877;28;20152;-47
2022/11/30 01:12:28;;;;;;;0.63;0.40;;;;;;;;;;4138462;28;20057;-48
2022/11/30 01:14:30;;;;;;;0.40;0.38;;;;;;;;;;4147125;28;20119;-48
2022/11/30 01:16:32;;;;;;;0.40;0.40;;;;;;;;;;4146984;28;20096;-47
2022/11/30 01:18:36;;;;;;;2.00;0.32;;;;;;;;;;4130998;28;20136;-52
2022/11/30 01:20:41;;;;;;;0.55;0.32;;;;;;;;;;4145411;28;20057;-53
2022/11/30 01:22:43;;;;;;;0.40;0.40;;;;;;;;;;4145658;28;20417;-49
2022/11/30 01:24:44;;;;;;;0.40;0.40;;;;;;;;;;4146977;28;20133;-53
2022/11/30 01:26:46;;;;;;;1.45;0.40;;;;;;;;;;4146625;28;20061;-51
2022/11/30 01:28:51;;;;;;;0.40;0.40;;;;;;;;;;4149117;28;20061;-53
2022/11/30 01:31:00;;;;;;;0.40;0.30;;;;;;;;;;4142147;28;20478;-49
2022/11/30 01:33:03;;;;;;;0.55;0.40;;;;;;;;;;4141544;28;20132;-48
2022/11/30 01:35:04;;;;;;;0.50;0.30;;;;;;;;;;4138124;28;20127;-50
2022/11/30 01:37:05;;;;;;;0.40;0.30;;;;;;;;;;4144857;28;20504;-48
2022/11/30 01:39:10;;;;;;;0.60;0.40;;;;;;;;;;4139948;28;20188;-44
2022/11/30 01:41:16;;;;;;;0.65;0.35;;;;;;;;;;4146115;28;20054;-47
2022/11/30 01:43:18;;;;;;;1.05;0.55;;;;;;;;;;4146647;28;20088;-49
2022/11/30 01:45:19;;;;;;;0.30;0.30;;;;;;;;;;4146592;28;20092;-48
2022/11/30 01:47:28;;;;;;;0.63;0.52;;;;;;;;;;4128876;28;20054;-48
2022/11/30 01:49:38;;;;;;;0.57;0.43;;;;;;;;;;4146760;28;20088;-45
2022/11/30 01:51:43;;;;;;;;;;;;;;;;;;4161566;28;20057;-47
2022/11/30 01:53:45;;;;;;;0.75;0.38;;;;;;;;;;4146622;28;19922;-47
2022/11/30 01:55:48;;;;;;;0.50;0.40;;;;;;;;;;4146469;28;20057;-50
2022/11/30 01:58:05;;;;;;;0.30;0.30;;;;;;;;;;4153208;28;20108;-50
2022/11/30 02:00:12;;;;;;;0.43;0.40;;;;;;;;;;4128889;28;20062;-46
2022/11/30 02:02:19;;;;;;;0.60;0.35;;;;;;;;;;4141348;28;20054;-46
2022/11/30 02:04:25;;;;;;;0.38;0.30;;;;;;;;;;4144603;28;20512;-48
2022/11/30 02:06:26;;;;;;;0.80;0.45;;;;;;;;;;4136898;28;20054;-46
2022/11/30 02:08:27;;;;;;;0.32;0.30;;;;;;;;;;4146295;28;20403;-49
2022/11/30 02:10:31;;;;;;;0.32;0.30;;;;;;;;;;4128697;28;20474;-46
2022/11/30 02:12:48;;;;;;;0.22;0.22;;;;;;;;;;4128703;28;20054;-49
2022/11/30 02:14:53;;;;;;;0.30;0.30;;;;;;;;;;4143560;28;20108;-46
2022/11/30 02:17:17;;;;;;;0.20;0.20;;;;;;;;;;4128606;28;20062;-48
2022/11/30 02:19:37;;;;;;;0.40;0.40;;;;;;;;;;4156697;28;20049;-49
2022/11/30 02:21:59;;;;;;;0.70;0.40;;;;;;;;;;4136994;28;20092;-49
2022/11/30 02:24:30;;;;;;;0.40;0.40;;;;;;;;;;4144501;28;20108;-47
2022/11/30 02:27:02;;;;;;;0.40;0.22;;;;;;;;;;4142947;28;20046;-49
2022/11/30 02:29:05;;;;;;;0.57;0.40;;;;;;;;;;4113426;28;20105;-48
2022/11/30 02:31:11;;;;;;;0.75;0.50;;;;;;;;;;4144359;28;20112;-45
2022/11/30 02:33:19;;;;;;;0.45;0.30;;;;;;;;;;4164883;28;20076;-46
2022/11/30 02:35:23;;;;;;;0.43;0.30;;;;;;;;;;4142021;28;20454;-46
2022/11/30 02:37:25;;;;;;;0.43;0.30;;;;;;;;;;4166005;28;20057;-49
2022/11/30 02:39:26;;;;;;;0.47;0.40;;;;;;;;;;4166288;28;20170;-49
2022/11/30 02:41:37;;;;;;;0.50;0.30;;;;;;;;;;4151632;28;20119;-45
2022/11/30 02:43:38;;;;;;;0.38;0.30;;;;;;;;;;4151428;28;20061;-45
2022/11/30 02:46:07;;;;;;;0.82;0.35;;;;;;;;;;4133819;28;20192;-49
2022/11/30 02:48:10;;;;;;;0.70;0.40;;;;;;;;;;4151442;28;20103;-50
2022/11/30 02:50:16;;;;;;;0.38;0.28;;;;;;;;;;4151282;28;20050;-47
2022/11/30 02:52:18;;;;;;;0.30;0.30;;;;;;;;;;4157271;28;20091;-47
2022/11/30 02:54:20;;;;;;;0.70;0.52;;;;;;;;;;4166254;28;20436;-48
2022/11/30 02:56:22;;;;;;;0.47;0.38;;;;;;;;;;4134117;28;20050;-48
2022/11/30 02:58:23;;;;;;;0.57;0.50;;;;;;;;;;4142602;28;20160;-48
2022/11/30 03:00:25;;;;;;;0.35;0.30;;;;;;;;;;4166232;28;20141;-46
2022/11/30 03:02:26;;;;;;;0.47;0.40;;;;;;;;;;4151141;28;20054;-46
2022/11/30 03:04:27;;;;;;;0.60;0.50;;;;;;;;;;4141292;28;20447;-46
2022/11/30 03:06:28;;;;;;;0.52;0.40;;;;;;;;;;4140161;28;20053;-48
2022/11/30 03:08:30;;;;;;;0.50;0.30;;;;;;;;;;4150913;28;20363;-46
2022/11/30 03:10:31;;;;;;;0.73;0.40;;;;;;;;;;4133477;28;20058;-49
2022/11/30 03:12:32;;;;;;;0.43;0.35;;;;;;;;;;4151440;28;20498;-48
2022/11/30 03:14:34;;;;;;;0.60;0.45;;;;;;;;;;4151388;28;20508;-48
2022/11/30 03:16:36;;;;;;;1.10;0.30;;;;;;;;;;4151482;28;20050;-49
2022/11/30 03:18:39;;;;;;;0.30;0.30;;;;;;;;;;4151483;28;20142;-49
2022/11/30 03:20:41;;;;;;;0.50;0.40;;;;;;;;;;4136469;28;20057;-45
2022/11/30 03:22:43;;;;;;;0.45;0.38;;;;;;;;;;4151161;28;20054;-48
2022/11/30 03:24:44;;;;;;;0.50;0.50;;;;;;;;;;4151166;28;20058;-50
2022/11/30 03:26:46;;;;;;;0.43;0.40;;;;;;;;;;4151300;28;20100;-46
2022/11/30 03:28:47;;;;;;;0.32;0.30;;;;;;;;;;4149865;28;20058;-44
2022/11/30 03:30:49;;;;;;;0.30;0.30;;;;;;;;;;4145762;28;20050;-49
2022/11/30 03:32:51;;;;;;;0.47;0.40;;;;;;;;;;4158459;28;20477;-48
2022/11/30 03:34:52;;;;;;;0.30;0.30;;;;;;;;;;4151366;28;20195;-53
2022/11/30 03:36:54;;;;;;;1.17;0.43;;;;;;;;;;4147502;28;20101;-48
2022/11/30 03:38:55;;;;;;;0.45;0.35;;;;;;;;;;4122144;28;20054;-50
2022/11/30 03:41:04;;;;;;;0.50;0.30;;;;;;;;;;4150880;28;20058;-46
2022/11/30 03:43:06;;;;;;;0.45;0.40;;;;;;;;;;4133714;28;20462;-49
2022/11/30 03:45:07;;;;;;;0.50;0.38;;;;;;;;;;4160574;28;20045;-49
2022/11/30 03:47:08;;;;;;;0.85;0.30;;;;;;;;;;4119454;28;20113;-48
2022/11/30 03:49:10;;;;;;;0.30;0.30;;;;;;;;;;4148479;28;20049;-46
2022/11/30 03:51:12;;;;;;;0.30;0.30;;;;;;;;;;4147687;28;20104;-46
2022/11/30 03:53:13;;;;;;;0.30;0.30;;;;;;;;;;4149808;28;20469;-48
2022/11/30 03:55:15;;;;;;;0.40;0.40;;;;;;;;;;4148403;28;20096;-48
2022/11/30 03:57:16;;;;;;;0.40;0.40;;;;;;;;;;4141497;28;20133;-47
2022/11/30 03:59:18;;;;;;;0.25;0.20;;;;;;;;;;4142051;28;20058;-48
2022/11/30 04:01:23;;;;;;;0.35;0.30;;;;;;;;;;4135455;28;20089;-48
2022/11/30 04:03:24;;;;;;;0.43;0.28;;;;;;;;;;4150391;28;20452;-49
2022/11/30 04:05:25;;;;;;;0.50;0.40;;;;;;;;;;4141675;28;20054;-48
2022/11/30 04:07:27;;;;;;;0.22;0.20;;;;;;;;;;4141199;28;20115;-46
2022/11/30 04:09:28;;;;;;;0.40;0.30;;;;;;;;;;4148307;28;20058;-48
2022/11/30 04:11:29;;;;;;;0.20;0.20;;;;;;;;;;4147105;28;20054;-47
2022/11/30 04:13:31;;;;;;;0.47;0.43;;;;;;;;;;4148128;28;20061;-48
2022/11/30 04:15:33;;;;;;;0.35;0.35;;;;;;;;;;4139798;28;20054;-48
2022/11/30 04:17:34;;;;;;;0.30;0.25;;;;;;;;;;4143396;28;20058;-48
2022/11/30 04:19:35;;;;;;;0.30;0.30;;;;;;;;;;4130354;28;20055;-49
2022/11/30 04:21:37;;;;;;;0.20;0.20;;;;;;;;;;4135672;28;20528;-48
2022/11/30 04:23:39;;;;;;;0.95;0.35;;;;;;;;;;4148040;28;20109;-49
2022/11/30 04:25:41;;;;;;;0.28;0.28;;;;;;;;;;4147616;28;20490;-47
2022/11/30 04:27:45;;;;;;;0.63;0.25;;;;;;;;;;4146975;28;20050;-49
2022/11/30 04:29:46;;;;;;;0.35;0.30;;;;;;;;;;4136058;28;20559;-48
2022/11/30 04:31:47;;;;;;;0.30;0.20;;;;;;;;;;4147649;28;20494;-53
2022/11/30 04:33:52;;;;;;;0.40;0.20;;;;;;;;;;4147647;28;20061;-49
2022/11/30 04:35:55;;;;;;;0.30;0.30;;;;;;;;;;4147034;28;20410;-51
2022/11/30 04:37:57;;;;;;;0.43;0.40;;;;;;;;;;4148007;28;20064;-49
2022/11/30 04:39:58;;;;;;;0.50;0.35;;;;;;;;;;4147591;28;20049;-53
2022/11/30 04:41:59;;;;;;;0.80;0.50;;;;;;;;;;4138040;28;20108;-53
2022/11/30 04:44:00;;;;;;;0.40;0.38;;;;;;;;;;4144258;28;20108;-51
2022/11/30 04:46:01;;;;;;;0.40;0.30;;;;;;;;;;4147164;28;20057;-53
2022/11/30 04:48:03;;;;;;;1.23;0.50;;;;;;;;;;4147542;28;20062;-50
2022/11/30 04:50:06;;;;;;;0.50;0.40;;;;;;;;;;4137486;28;20149;-53
2022/11/30 04:52:07;;;;;;;1.17;0.40;;;;;;;;;;4125642;28;20569;-52
2022/11/30 04:54:08;;;;;;;0.68;0.40;;;;;;;;;;4129927;28;20102;-49
2022/11/30 04:56:11;;;;;;;0.30;0.30;;;;;;;;;;4142214;28;20062;-47
2022/11/30 04:58:12;;;;;;;0.40;0.30;;;;;;;;;;4139516;28;20054;-49
2022/11/30 05:00:15;;;;;;;0.43;0.30;;;;;;;;;;4147445;28;20421;-53
2022/11/30 05:02:16;;;;;;;0.30;0.30;;;;;;;;;;4129368;28;20117;-49
2022/11/30 05:04:18;;;;;;;0.82;0.30;;;;;;;;;;4135870;28;20046;-48
2022/11/30 05:06:19;;;;;;;0.30;0.30;;;;;;;;;;4161882;28;20049;-49
2022/11/30 05:08:20;;;;;;;0.45;0.30;;;;;;;;;;4136979;28;20059;-51
2022/11/30 05:10:22;;;;;;;0.50;0.40;;;;;;;;;;4144320;28;20061;-49
2022/11/30 05:12:24;;;;;;;0.50;0.30;;;;;;;;;;4146899;28;20061;-48
2022/11/30 05:14:25;;;;;;;0.40;0.40;;;;;;;;;;4147210;28;20567;-48
2022/11/30 05:16:27;;;;;;;0.47;0.40;;;;;;;;;;4129466;28;20054;-45
2022/11/30 05:18:30;;;;;;;0.40;0.32;;;;;;;;;;4143731;28;20130;-49
2022/11/30 05:20:31;;;;;;;0.90;0.25;;;;;;;;;;4148631;28;20053;-48
2022/11/30 05:22:34;;;;;;;0.47;0.40;;;;;;;;;;4140576;28;20109;-48
2022/11/30 05:24:35;;;;;;;0.32;0.30;;;;;;;;;;4140155;28;20057;-48
2022/11/30 05:26:37;;;;;;;0.30;0.20;;;;;;;;;;4146638;28;20049;-49
2022/11/30 05:28:39;;;;;;;0.30;0.30;;;;;;;;;;4144624;28;20065;-49
2022/11/30 05:30:41;;;;;;;1.00;0.40;;;;;;;;;;4118489;28;20066;-49
2022/11/30 05:32:42;;;;;;;0.63;0.40;;;;;;;;;;4146734;28;20564;-48
2022/11/30 05:34:43;;;;;;;0.73;0.40;;;;;;;;;;4146827;28;20120;-48
2022/11/30 05:36:45;;;;;;;0.73;0.40;;;;;;;;;;4145765;28;20065;-48
2022/11/30 05:38:46;;;;;;;0.50;0.40;;;;;;;;;;4146768;28;20414;-46
2022/11/30 05:40:48;;;;;;;0.30;0.30;;;;;;;;;;4146694;28;20058;-48
2022/11/30 05:42:54;;;;;;;0.32;0.30;;;;;;;;;;4146785;28;20196;-48
2022/11/30 05:44:56;;;;;;;0.38;0.38;;;;;;;;;;4146379;28;20441;-48
2022/11/30 05:46:57;;;;;;;0.60;0.50;;;;;;;;;;4146722;28;20069;-48
2022/11/30 05:48:58;;;;;;;0.57;0.32;;;;;;;;;;4146721;28;20390;-46
2022/11/30 05:51:11;;;;;;;0.60;0.43;;;;;;;;;;4145971;28;20553;-47
2022/11/30 05:53:12;;;;;;;0.70;0.50;;;;;;;;;;4133102;28;20113;-47
2022/11/30 05:55:14;;;;;;;0.52;0.40;;;;;;;;;;4146639;28;20336;-49
2022/11/30 05:57:15;;;;;;;0.75;0.35;;;;;;;;;;4138899;28;20096;-49
2022/11/30 05:59:16;;;;;;;0.50;0.50;;;;;;;;;;4156041;28;20053;-45
2022/11/30 06:01:28;;;;;;;0.80;0.43;;;;;;;;;;4134465;28;20130;-49
2022/11/30 06:03:31;;;;;;;0.70;0.50;;;;;;;;;;4133231;28;20057;-45
2022/11/30 06:05:33;;;;;;;0.63;0.40;;;;;;;;;;4136014;28;20558;-48
2022/11/30 06:07:34;;;;;;;0.85;0.60;;;;;;;;;;4138587;28;20552;-47
2022/11/30 06:09:35;;;;;;;0.95;0.50;;;;;;;;;;4130680;28;20054;-49
2022/11/30 06:11:36;;;;;;;0.60;0.50;;;;;;;;;;4144409;28;20062;-45
2022/11/30 06:13:38;;;;;;;1.55;0.70;;;;;;;;;;4126536;28;20089;-49
2022/11/30 06:15:40;;;;;;;0.55;0.40;;;;;;;;;;4133943;28;20097;-48
2022/11/30 06:17:41;;;;;;;0.75;0.60;;;;;;;;;;4141481;28;20116;-46
2022/11/30 06:19:43;;;;;;;1.30;0.60;;;;;;;;;;4128110;28;20521;-45
2022/11/30 06:21:44;;;;;;;1.10;0.55;;;;;;;;;;4127750;28;20058;-48
2022/11/30 06:23:45;;;;;;;1.45;0.60;;;;;;;;;;4137994;28;20061;-45
2022/11/30 06:25:46;;;;;;;0.80;0.57;;;;;;;;;;4144237;28;20050;-46
2022/11/30 06:27:48;;;;;;;0.60;0.47;;;;;;;;;;4143920;28;20490;-49
2022/11/30 06:29:49;;;;;;;0.50;0.50;;;;;;;;;;4126704;28;20529;-48
2022/11/30 06:31:51;;;;;;;0.73;0.50;;;;;;;;;;4144029;28;20058;-49
2022/11/30 06:33:56;;;;;;;0.65;0.60;;;;;;;;;;4132888;28;20061;-49
2022/11/30 06:35:57;;;;;;;0.63;0.50;;;;;;;;;;4142400;28;20054;-50
2022/11/30 06:38:02;;;;;;;0.50;0.50;;;;;;;;;;4121479;28;20055;-47
2022/11/30 06:40:04;;;;;;;0.60;0.50;;;;;;;;;;4136442;28;20062;-49
2022/11/30 06:42:05;;;;;;;0.52;0.52;;;;;;;;;;4115055;28;20055;-49
2022/11/30 06:44:08;;;;;;;1.02;0.80;;;;;;;;;;4142357;28;20355;-48
2022/11/30 06:46:09;;;;;;;1.00;0.73;;;;;;;;;;4139230;28;20113;-48
2022/11/30 06:48:12;;;;;;;0.70;0.45;;;;;;;;;;4110217;28;20461;-50
2022/11/30 06:50:13;;;;;;;1.27;0.60;;;;;;;;;;4135548;28;20050;-47
2022/11/30 06:52:15;;;;;;;2.25;0.80;;;;;;;;;;4155915;28;20061;-50
2022/11/30 06:54:16;;;;;;;1.17;0.68;;;;;;;;;;4140296;28;20058;-45
2022/11/30 06:56:17;;;;;;;0.70;0.60;;;;;;;;;;4147160;28;20449;-48
2022/11/30 06:58:19;;;;;;;1.02;0.63;;;;;;;;;;4129152;28;20070;-46
2022/11/30 07:00:20;;;;;;;2.60;0.80;;;;;;;;;;4121169;28;20061;-47
2022/11/30 07:02:22;;;;;;;1.10;0.60;;;;;;;;;;4135391;28;20112;-46
2022/11/30 07:04:23;;;;;;;2.20;0.90;;;;;;;;;;4119721;28;20093;-47
2022/11/30 07:06:25;;;;;;;1.17;0.60;;;;;;;;;;4131565;28;20079;-47
2022/11/30 07:08:26;;;;;;;0.70;0.60;;;;;;;;;;4127583;28;20113;-45
2022/11/30 07:10:27;;;;;;;0.77;0.70;;;;;;;;;;4124661;28;20070;-47
2022/11/30 07:12:28;;;;;;;0.98;0.65;;;;;;;;;;4104810;28;20058;-49
2022/11/30 07:14:30;;;;;;;1.27;0.68;;;;;;;;;;4120887;28;20418;-47
2022/11/30 07:16:31;;;;;;;1.85;0.70;;;;;;;;;;4128487;28;20050;-49
2022/11/30 07:18:33;;;;;;;2.38;0.80;;;;;;;;;;4116550;28;20054;-47
2022/11/30 07:20:35;;;;;;;1.52;0.63;;;;;;;;;;4107741;28;20058;-50
2022/11/30 07:22:36;;;;;;;1.23;0.77;;;;;;;;;;4120859;28;20053;-48
2022/11/30 07:26:58;;;;;;;1.52;0.70;;;;;;;;;;4115145;28;20101;-46
2022/11/30 07:28:59;;;;;;;1.80;1.05;;;;;;;;;;4111731;28;20542;-44
2022/11/30 07:31:11;;;;;;;0.50;0.50;;;;;;;;;;4108586;28;20149;-49
2022/11/30 07:33:12;;;;;;;0.82;0.50;;;;;;;;;;4102211;28;20084;-46
2022/11/30 07:35:14;;;;;;;3.03;0.60;;;;;;;;;;4110590;28;20122;-44
2022/11/30 07:37:15;;;;;;;0.63;0.63;;;;;;;;;;4102320;28;21592;-47
2022/11/30 07:39:17;;;;;;;2.17;0.70;;;;;;;;;;4106910;28;20782;-44
2022/11/30 07:41:18;;;;;;;1.52;0.98;;;;;;;;;;4109945;28;20069;-50
2022/11/30 07:43:20;;;;;;;0.60;0.60;;;;;;;;;;4101406;28;20119;-45
2022/11/30 07:45:21;;;;;;;0.70;0.60;;;;;;;;;;4118248;28;20117;-45
2022/11/30 07:47:23;;;;;;;1.65;0.90;;;;;;;;;;4113314;28;20110;-47
2022/11/30 07:49:24;;;;;;;0.95;0.60;;;;;;;;;;4115708;28;20058;-49
2022/11/30 07:51:26;;;;;;;0.90;0.70;;;;;;;;;;4105726;28;20054;-45
2022/11/30 07:53:27;;;;;;;0.88;0.70;;;;;;;;;;4112183;28;20086;-42
2022/11/30 07:55:28;;;;;;;2.35;0.90;;;;;;;;;;4107820;28;20109;-47
2022/11/30 07:57:30;;;;;;;1.20;0.80;;;;;;;;;;4110747;28;20295;-45
2022/11/30 07:59:31;;;;;;;2.05;0.77;;;;;;;;;;4106896;28;20058;-48
2022/11/30 08:01:33;;;;;;;0.85;0.50;;;;;;;;;;4105302;28;20070;-45
2022/11/30 08:03:35;;;;;;;1.40;0.77;;;;;;;;;;4095942;28;20055;-44
2022/11/30 08:05:36;;;;;;;2.45;0.82;;;;;;;;;;4090982;28;20433;-44
2022/11/30 08:07:38;;;;;;;1.73;0.90;;;;;;;;;;4093646;28;20098;-43
2022/11/30 08:09:39;;;;;;;1.45;0.70;;;;;;;;;;4125885;28;20058;-46
2022/11/30 08:11:41;;;;;;;0.65;0.60;;;;;;;;;;4120336;28;20522;-45
2022/11/30 08:13:42;;;;;;;0.98;0.77;;;;;;;;;;4117679;28;20560;-43
2022/11/30 08:15:44;;;;;;;0.93;0.65;;;;;;;;;;4116747;28;20050;-42
2022/11/30 08:17:45;;;;;;;1.60;0.68;;;;;;;;;;4111805;28;20062;-43
2022/11/30 08:19:46;;;;;;;1.02;0.70;;;;;;;;;;4124453;28;20172;-46
2022/11/30 08:21:48;;;;;;;1.45;0.85;;;;;;;;;;4115316;28;20058;-42
2022/11/30 08:23:55;;;;;;;0.80;0.60;;;;;;;;;;4108347;28;20568;-44
2022/11/30 08:26:01;;;;;;;1.15;0.70;;;;;;;;;;4111564;28;20054;-44
2022/11/30 08:28:03;;;;;;;1.63;0.90;;;;;;;;;;4112318;28;20058;-44
2022/11/30 08:30:05;;;;;;;2.17;0.70;;;;;;;;;;4105360;28;20473;-41
2022/11/30 08:32:06;;;;;;;0.90;0.70;;;;;;;;;;4076989;28;20447;-46
2022/11/30 08:34:12;;;;;;;0.70;0.60;;;;;;;;;;4072291;28;20276;-44
2022/11/30 08:36:15;;;;;;;1.15;0.75;;;;;;;;;;4090884;28;20054;-42
2022/11/30 08:38:16;;;;;;;1.02;0.90;;;;;;;;;;4100044;28;20129;-43
2022/11/30 08:40:17;;;;;;;1.13;0.68;;;;;;;;;;4097901;28;20058;-42
2022/11/30 08:42:18;;;;;;;1.00;0.90;;;;;;;;;;4094615;28;20148;-41
2022/11/30 08:44:20;;;;;;;0.73;0.68;;;;;;;;;;4107663;28;20130;-46
2022/11/30 08:46:23;;;;;;;1.33;0.70;;;;;;;;;;4097871;28;20508;-44
2022/11/30 08:48:24;;;;;;;0.75;0.75;;;;;;;;;;4088912;28;20114;-46
2022/11/30 08:50:26;;;;;;;0.80;0.80;;;;;;;;;;4102696;28;20154;-44
2022/11/30 08:52:27;;;;;;;1.85;0.90;;;;;;;;;;4077879;28;20485;-43
2022/11/30 08:54:28;;;;;;;1.23;0.90;;;;;;;;;;4101561;28;20478;-42
2022/11/30 08:56:30;;;;;;;2.05;0.93;;;;;;;;;;4102459;28;20109;-43
2022/11/30 08:58:34;;;;;;;1.55;0.80;;;;;;;;;;4073222;28;20487;-45
2022/11/30 09:00:35;;;;;;;2.50;0.70;;;;;;;;;;4095989;28;20097;-48
2022/11/30 09:02:37;;;;;;;1.67;0.98;;;;;;;;;;4092242;28;22403;-48
2022/11/30 09:04:38;;;;;;;2.03;0.80;;;;;;;;;;4098106;28;20140;-48
2022/11/30 09:06:40;;;;;;;1.17;0.90;;;;;;;;;;4102564;28;20538;-45
2022/11/30 09:08:44;;;;;;;1.73;0.90;;;;;;;;;;4103715;28;20146;-49
2022/11/30 09:10:45;;;;;;;1.27;0.90;;;;;;;;;;4101347;28;20117;-41
2022/11/30 09:12:46;;;;;;;1.73;1.00;;;;;;;;;;4087252;28;20731;-44
2022/11/30 09:14:48;;;;;;;2.17;0.90;;;;;;;;;;4099633;28;20090;-47
2022/11/30 09:16:49;;;;;;;0.98;0.52;;;;;;;;;;4100973;28;20108;-46
2022/11/30 09:18:51;;;;;;;1.85;1.02;;;;;;;;;;4102568;28;20573;-45
2022/11/30 09:20:56;;;;;;;2.85;1.00;;;;;;;;;;4102088;28;20057;-44
2022/11/30 09:22:58;;;;;;;1.10;0.73;;;;;;;;;;4126577;28;20057;-44
2022/11/30 09:24:59;;;;;;;1.45;1.10;;;;;;;;;;4097579;28;20421;-49
2022/11/30 09:27:00;;;;;;;1.10;0.88;;;;;;;;;;4107322;28;20050;-49
2022/11/30 09:29:03;;;;;;;2.35;1.13;;;;;;;;;;4101134;28;20426;-45
2022/11/30 09:31:06;;;;;;;2.00;1.08;;;;;;;;;;4099005;28;20141;-44
2022/11/30 09:33:08;;;;;;;3.25;0.63;;;;;;;;;;4102922;28;20067;-49
2022/11/30 09:35:09;;;;;;;3.85;1.05;;;;;;;;;;4095953;28;20058;-45
2022/11/30 09:37:10;;;;;;;1.60;0.98;;;;;;;;;;4095940;28;20517;-43
2022/11/30 09:39:12;;;;;;;2.75;1.00;;;;;;;;;;4103686;28;20121;-47
2022/11/30 09:41:42;;;;;;;2.35;1.00;;;;;;;;;;4084169;28;21471;-43
2022/11/30 09:43:52;;;;;;;1.20;1.10;;;;;;;;;;4085538;28;20572;-47
2022/11/30 09:45:56;;;;;;;1.15;0.90;;;;;;;;;;4099799;28;20054;-48
2022/11/30 09:48:12;;;;;;;1.52;1.00;;;;;;;;;;4120073;28;20524;-47
2022/11/30 09:50:17;;;;;;;1.45;0.90;;;;;;;;;;4084494;28;20134;-46
2022/11/30 09:52:37;;;;;;;0.90;0.75;;;;;;;;;;4077712;28;20519;-42
2022/11/30 09:54:40;;;;;;;;;;;;;;;;;;4087064;28;20440;-50
2022/11/30 09:56:42;;;;;;;2.03;0.90;;;;;;;;;;4110988;28;19933;-47
2022/11/30 09:58:47;;;;;;;0.98;0.68;;;;;;;;;;4082426;28;20067;-46
2022/11/30 10:00:48;;;;;;;1.88;1.30;;;;;;;;;;4091092;28;20197;-46
2022/11/30 10:02:54;;;;;;;1.20;0.80;;;;;;;;;;4099882;28;20105;-47
2022/11/30 10:04:56;;;;;;;1.35;1.25;;;;;;;;;;4100103;28;20064;-42
2022/11/30 10:07:35;;;;;;;1.27;0.80;;;;;;;;;;4118414;28;20056;-45
2022/11/30 10:09:51;;;;;;;0.88;0.73;;;;;;;;;;4104910;28;20082;-48
2022/11/30 10:12:05;;;;;;;1.25;0.80;;;;;;;;;;4125774;28;20057;-48
2022/11/30 10:14:40;;;;;;;1.27;0.95;;;;;;;;;;4113380;28;20618;-41
2022/11/30 10:17:20;;;;;;;0.85;0.75;;;;;;;;;;4115845;28;20053;-47
2022/11/30 10:19:49;;;;;;;1.38;0.90;;;;;;;;;;4137647;28;20068;-50
2022/11/30 10:22:10;;;;;;;1.40;0.87;;;;;;;;;;4110892;28;20106;-46
2022/11/30 10:24:19;;;;;;;0.95;0.70;;;;;;;;;;4129940;28;20572;-45
2022/11/30 10:26:27;;;;;;;1.23;1.00;;;;;;;;;;4122827;28;20053;-45
2022/11/30 10:28:56;;;;;;;2.00;0.80;;;;;;;;;;4109831;28;20475;-49
2022/11/30 10:30:59;;;;;;;1.42;0.80;;;;;;;;;;4115996;28;20567;-55
2022/11/30 10:33:08;;;;;;;1.02;0.90;;;;;;;;;;4109292;28;20398;-48
2022/11/30 10:35:33;;;;;;;0.85;0.65;;;;;;;;;;4136377;28;20057;-46
2022/11/30 10:37:35;;;;;;;1.20;1.00;;;;;;;;;;4130512;28;20060;-48
2022/11/30 10:39:43;;;;;;;1.63;0.85;;;;;;;;;;4126000;28;20053;-48
2022/11/30 10:41:59;;;;;;;0.73;0.73;;;;;;;;;;4121813;28;20483;-44
2022/11/30 10:44:09;;;;;;;1.33;0.80;;;;;;;;;;4109071;28;20058;-51
2022/11/30 10:46:18;;;;;;;1.27;0.82;;;;;;;;;;4106715;28;20059;-52
2022/11/30 10:48:30;;;;;;;0.88;0.50;;;;;;;;;;4127398;28;20740;-51
2022/11/30 10:50:31;;;;;;;1.92;0.80;;;;;;;;;;4116163;28;20481;-46
2022/11/30 10:52:46;;;;;;;1.15;1.00;;;;;;;;;;4105454;28;20050;-56
2022/11/30 10:54:49;;;;;;;0.82;0.73;;;;;;;;;;4104393;28;20062;-47
2022/11/30 10:56:51;;;;;;;1.33;0.88;;;;;;;;;;4129704;28;20053;-51
2022/11/30 10:58:59;;;;;;;0.90;0.70;;;;;;;;;;4125737;28;20061;-50
2022/11/30 11:01:08;;;;;;;1.90;0.90;;;;;;;;;;4129657;28;20057;-51
2022/11/30 11:03:23;;;;;;;;;;;;;;;;;;4103479;28;20125;-50
2022/11/30 11:05:27;;;;;;;0.60;0.60;;;;;;;;;;4126362;28;19934;-46
2022/11/30 11:07:30;;;;;;;0.73;0.73;;;;;;;;;;4125789;28;20053;-51
2022/11/30 11:09:38;;;;;;;0.75;0.75;;;;;;;;;;4131661;28;20477;-50
2022/11/30 11:11:41;;;;;;;0.70;0.60;;;;;;;;;;4134425;28;20093;-50
2022/11/30 11:13:43;;;;;;;0.95;0.80;;;;;;;;;;4110563;28;20062;-44
2022/11/30 11:15:58;;;;;;;1.45;0.70;;;;;;;;;;4131014;28;20081;-46
2022/11/30 11:18:14;;;;;;;3.47;0.82;;;;;;;;;;4111064;28;20050;-49
2022/11/30 11:20:34;;;;;;;0.65;0.65;;;;;;;;;;4118947;28;20054;-44
2022/11/30 11:22:36;;;;;;;0.68;0.68;;;;;;;;;;4133616;28;20112;-47
2022/11/30 11:24:38;;;;;;;1.70;0.85;;;;;;;;;;4118295;28;20433;-51
2022/11/30 11:26:48;;;;;;;1.30;0.90;;;;;;;;;;4127362;28;20733;-51
2022/11/30 11:28:52;;;;;;;1.60;0.98;;;;;;;;;;4109868;28;20054;-48
2022/11/30 11:30:55;;;;;;;0.75;0.75;;;;;;;;;;4114387;28;20065;-50
2022/11/30 11:33:20;;;;;;;0.75;0.75;;;;;;;;;;4121766;28;20584;-52
2022/11/30 11:35:55;;;;;;;0.55;0.50;;;;;;;;;;4121506;28;20053;-51
2022/11/30 11:37:56;;;;;;;0.98;0.70;;;;;;;;;;4130397;28;20124;-48
2022/11/30 11:40:00;;;;;;;0.88;0.70;;;;;;;;;;4131920;28;20150;-45
2022/11/30 11:42:01;;;;;;;1.13;0.80;;;;;;;;;;4139372;28;20462;-48
2022/11/30 11:44:08;;;;;;;0.82;0.70;;;;;;;;;;4112721;28;20088;-46
2022/11/30 11:46:11;;;;;;;1.13;0.80;;;;;;;;;;4131683;28;20053;-51
2022/11/30 11:48:33;;;;;;;1.65;0.70;;;;;;;;;;4122458;28;20077;-52
2022/11/30 11:50:36;;;;;;;1.38;0.70;;;;;;;;;;4125431;28;20443;-51
2022/11/30 11:52:37;;;;;;;1.10;0.75;;;;;;;;;;4123753;28;20065;-51
2022/11/30 11:54:54;;;;;;;1.50;0.80;;;;;;;;;;4115011;28;20554;-49
2022/11/30 11:56:56;;;;;;;0.65;0.40;;;;;;;;;;4116251;28;20058;-45
2022/11/30 11:59:01;;;;;;;1.77;0.77;;;;;;;;;;4110109;28;20058;-49
2022/11/30 12:01:07;;;;;;;1.33;0.88;;;;;;;;;;4105545;28;20121;-47
2022/11/30 12:03:36;;;;;;;1.75;0.63;;;;;;;;;;4113615;28;20057;-47
2022/11/30 12:05:52;;;;;;;1.02;0.77;;;;;;;;;;4107260;28;20058;-49
2022/11/30 12:08:06;;;;;;;0.60;0.60;;;;;;;;;;4118971;28;20672;-46
2022/11/30 12:10:32;;;;;;;1.02;0.70;;;;;;;;;;4104984;28;20066;-50
2022/11/30 12:12:33;;;;;;;2.05;0.80;;;;;;;;;;4097308;28;20148;-48
2022/11/30 12:14:34;;;;;;;0.80;0.70;;;;;;;;;;4111510;28;20113;-52
2022/11/30 12:17:00;;;;;;;2.95;0.73;;;;;;;;;;4104850;28;20062;-51
2022/11/30 12:19:23;;;;;;;1.58;0.65;;;;;;;;;;4106195;28;20094;-44
2022/11/30 12:21:35;;;;;;;1.65;0.88;;;;;;;;;;4105370;28;20073;-45
2022/11/30 12:23:48;;;;;;;1.17;0.90;;;;;;;;;;4100841;28;20078;-48
2022/11/30 12:26:08;;;;;;;1.10;0.80;;;;;;;;;;4095923;28;20059;-48
2022/11/30 12:28:31;;;;;;;1.98;0.90;;;;;;;;;;4089304;28;20097;-47
2022/11/30 12:31:10;;;;;;;1.00;0.70;;;;;;;;;;4102576;28;20065;-50